Time;durP1;ratioP1;P1;durP2;ratioP2;P2;SDS_P1;SDS_P2;PMS_P1;PMS_P2;Temp;Humidity;BMP_temperature;BMP_pressure;BME280_temperature;BME280_humidity;BME280_pressure;Samples;Min_cycle;Max_cycle;Signal;HPM_P1;HPM_P2
2022/01/31 00:01:14;;;;;;;;;;;;;;;3.17;71.68;97942.30;1730321;82;22261;-88
2022/01/31 00:03:40;;;;;;;;;;;;;;;3.21;71.60;97935.25;1723918;82;26035;-88
2022/01/31 00:06:11;;;;;;;;;;;;;;;3.23;71.52;97935.99;1727191;82;24292;-88
2022/01/31 00:08:37;;;;;;;;;;;;;;;3.22;71.46;97936.90;1729865;82;20198;-88
2022/01/31 00:11:03;;;;;;;;;;;;;;;3.18;71.34;97946.56;1725823;82;24504;-88
2022/01/31 00:13:40;;;;;;;;;;;;;;;3.17;71.21;97944.05;1726684;81;21931;-88
2022/01/31 00:16:09;;;;;;;;;;;;;;;3.16;71.15;97948.41;1721404;82;26669;-88
2022/01/31 00:18:37;;;;;;;;;;;;;;;3.15;71.04;97951.89;1726056;82;24529;-87
2022/01/31 00:21:03;;;;;;;;;;;;;;;3.16;70.93;97952.73;1726533;82;20193;-88
2022/01/31 00:23:29;;;;;;;;;;;;;;;3.13;70.82;97948.53;1719096;82;24569;-88
2022/01/31 00:25:55;;;;;;;;;;;;;;;3.09;70.72;97948.30;1728302;82;21986;-88
2022/01/31 00:28:21;;;;;;;;;;;;;;;3.08;70.59;97952.25;1728728;82;26062;-88
2022/01/31 00:30:47;;;;;;;;;;;;;;;3.07;70.50;97949.27;1726281;82;20279;-88
2022/01/31 00:33:14;;;;;;;;;;;;;;;3.04;70.45;97942.52;1718215;82;20219;-87
2022/01/31 00:35:40;;;;;;;;;;;;;;;3.06;70.37;97940.67;1726339;82;24547;-88
2022/01/31 00:38:09;;;;;;;;;;;;;;;3.05;70.32;97935.61;1728798;81;21941;-88
2022/01/31 00:40:41;;;;;;;;;;;;;;;3.05;70.28;97927.85;1718222;82;26001;-88
2022/01/31 00:43:03;;;;;;;;;;;;;;;3.04;70.20;97928.75;1722854;82;24649;-88
2022/01/31 00:45:31;;;;;;;;;;;;;;;3.04;70.20;97932.63;1722724;82;20220;-88
2022/01/31 00:48:02;;;;;;;;;;;;;;;3.04;70.17;97928.30;1725239;81;24729;-87
2022/01/31 00:50:37;;;;;;;;;;;;;;;3.05;70.15;97928.69;1696293;82;20224;-88
2022/01/31 00:52:59;;;;;;;;;;;;;;;3.04;70.11;97919.70;1723789;82;27106;-87
2022/01/31 00:55:28;;;;;;;;;;;;;;;3.01;70.03;97937.48;1707656;84;24726;-88
2022/01/31 00:57:54;;;;;;;;;;;;;;;2.94;69.95;97921.45;1726554;82;20239;-88
2022/01/31 01:00:20;;;;;;;;;;;;;;;2.94;69.84;97924.03;1723997;82;20761;-88
2022/01/31 01:02:47;;;;;;;;;;;;;;;2.92;69.75;97924.55;1702948;84;22077;-88
2022/01/31 01:05:14;;;;;;;;;;;;;;;2.93;69.71;97930.56;1703265;82;25958;-88
2022/01/31 01:07:45;;;;;;;;;;;;;;;2.92;69.66;97939.22;1726445;82;23902;-87
2022/01/31 01:10:08;;;;;;;;;;;;;;;2.90;69.60;97931.52;1727830;82;20463;-86
2022/01/31 01:12:34;;;;;;;;;;;;;;;2.91;69.50;97930.63;1727431;82;24583;-88
2022/01/31 01:15:02;;;;;;;;;;;;;;;2.87;69.37;97932.98;1711367;82;20196;-88
2022/01/31 01:17:28;;;;;;;;;;;;;;;2.87;69.25;97935.56;1729607;81;26067;-87
2022/01/31 01:19:54;;;;;;;;;;;;;;;2.83;69.16;97919.83;1723133;82;24399;-86
2022/01/31 01:22:24;;;;;;;;;;;;;;;2.82;69.09;97915.56;1724531;82;20259;-88
2022/01/31 01:24:50;;;;;;;;;;;;;;;2.80;69.01;97903.61;1722081;82;24714;-88
2022/01/31 01:27:19;;;;;;;;;;;;;;;2.74;68.87;97909.91;1720964;82;22576;-88
2022/01/31 01:29:45;;;;;;;;;;;;;;;2.71;68.69;97901.47;1730905;82;25981;-88
2022/01/31 01:32:12;;;;;;;;;;;;;;;2.68;68.53;97896.43;1730553;82;24264;-88
2022/01/31 01:34:38;;;;;;;;;;;;;;;2.65;68.41;97902.59;1721217;82;20223;-88
2022/01/31 01:37:04;;;;;;;;;;;;;;;2.64;68.35;97898.78;1725827;82;24582;-88
2022/01/31 01:39:31;;;;;;;;;;;;;;;2.61;68.32;97892.03;1728393;82;22114;-88
2022/01/31 01:41:58;;;;;;;;;;;;;;;2.63;68.31;97885.02;1723605;82;26025;-88
2022/01/31 01:44:42;;;;;;;;;;;;;;;2.62;68.32;97878.18;1723350;82;25257;-88
2022/01/31 01:47:10;;;;;;;;;;;;;;;2.51;68.31;97846.84;1719877;82;20235;-89
2022/01/31 01:49:36;;;;;;;;;;;;;;;2.58;68.27;97856.45;1722547;82;24700;-88
2022/01/31 01:52:03;;;;;;;;;;;;;;;2.58;68.26;97861.61;1725965;82;22103;-89
2022/01/31 01:54:29;;;;;;;;;;;;;;;2.58;68.29;97852.12;1693051;84;26062;-88
2022/01/31 01:56:58;;;;;;;;;;;;;;;2.59;68.32;97852.96;1698240;84;24645;-88
2022/01/31 01:59:24;;;;;;;;;;;;;;;2.60;68.36;97859.35;1718362;83;20185;-88
2022/01/31 02:01:51;;;;;;;;;;;;;;;2.58;68.37;97852.57;1719802;83;25309;-88
2022/01/31 02:04:17;;;;;;;;;;;;;;;2.56;68.35;97844.92;1716563;83;22118;-88
2022/01/31 02:06:45;;;;;;;;;;;;;;;2.57;68.38;97836.69;1715865;83;26024;-88
2022/01/31 02:09:17;;;;;;;;;;;;;;;2.58;68.37;97827.58;1718875;82;24477;-88
2022/01/31 02:11:44;;;;;;;;;;;;;;;2.58;68.32;97830.17;1707298;81;20239;-88
2022/01/31 02:14:10;;;;;;;;;;;;;;;2.56;68.28;97823.42;1700143;83;24622;-88
2022/01/31 02:16:37;;;;;;;;;;;;;;;2.55;68.21;97810.12;1697428;83;22110;-87
2022/01/31 02:19:03;;;;;;;;;;;;;;;2.52;68.14;97803.34;1726243;81;26020;-87
2022/01/31 02:21:29;;;;;;;;;;;;;;;2.49;68.07;97801.75;1697179;83;24275;-87
2022/01/31 02:23:55;;;;;;;;;;;;;;;2.48;68.06;97793.63;1729244;81;20256;-88
2022/01/31 02:26:26;;;;;;;;;;;;;;;2.46;68.02;97794.59;1728844;81;24553;-88
2022/01/31 02:28:50;;;;;;;;;;;;;;;2.45;68.01;97794.23;1699271;83;22170;-88
2022/01/31 02:31:16;;;;;;;;;;;;;;;2.47;68.02;97789.36;1731046;81;26012;-88
2022/01/31 02:33:42;;;;;;;;;;;;;;;2.48;67.98;97786.33;1697912;83;24353;-88
2022/01/31 02:36:08;;;;;;;;;;;;;;;2.45;67.93;97782.16;1698042;83;20202;-87
2022/01/31 02:38:35;;;;;;;;;;;;;;;2.43;67.88;97776.22;1697717;83;24576;-87
2022/01/31 02:41:01;;;;;;;;;;;;;;;2.40;67.84;97771.19;1700080;83;21999;-88
2022/01/31 02:43:28;;;;;;;;;;;;;;;2.39;67.81;97764.83;1705010;83;26140;-88
2022/01/31 02:45:54;;;;;;;;;;;;;;;2.40;67.81;97767.80;1700003;83;24541;-88
2022/01/31 02:48:23;;;;;;;;;;;;;;;2.41;67.85;97762.53;1702700;83;20236;-88
2022/01/31 02:50:49;;;;;;;;;;;;;;;2.43;67.86;97767.63;1683302;83;24574;-88
2022/01/31 02:53:26;;;;;;;;;;;;;;;2.39;67.81;97760.95;1709097;83;22770;-88
2022/01/31 02:55:53;;;;;;;;;;;;;;;2.37;67.78;97759.73;1703813;83;26085;-88
2022/01/31 02:58:19;;;;;;;;;;;;;;;2.33;67.78;97741.88;1705262;83;25292;-88
2022/01/31 03:00:46;;;;;;;;;;;;;;;2.30;67.74;97742.84;1707275;83;20475;-88
2022/01/31 03:03:17;;;;;;;;;;;;;;;2.30;67.74;97735.10;1703501;83;24555;-89
2022/01/31 03:05:42;;;;;;;;;;;;;;;2.32;67.79;97737.63;1706518;83;21648;-88
2022/01/31 03:08:08;;;;;;;;;;;;;;;2.34;67.89;97730.20;1703487;83;26139;-88
2022/01/31 03:10:34;;;;;;;;;;;;;;;2.36;67.99;97743.84;1706801;83;24731;-88
2022/01/31 03:13:01;;;;;;;;;;;;;;;2.36;68.07;97736.55;1703466;83;20267;-88
2022/01/31 03:15:27;;;;;;;;;;;;;;;2.39;68.19;97733.84;1707626;83;25310;-88
2022/01/31 03:17:53;;;;;;;;;;;;;;;2.42;68.32;97728.06;1703595;83;20303;-88
2022/01/31 03:20:22;;;;;;;;;;;;;;;2.45;68.44;97718.05;1702315;83;26070;-87
2022/01/31 03:22:48;;;;;;;;;;;;;;;2.44;68.55;97712.50;1702516;83;25532;-88
2022/01/31 03:25:15;;;;;;;;;;;;;;;2.45;68.65;97703.40;1703336;83;20172;-88
2022/01/31 03:27:41;;;;;;;;;;;;;;;2.47;68.76;97708.47;1701378;83;24586;-88
2022/01/31 03:30:08;;;;;;;;;;;;;;;2.46;68.84;97697.30;1703648;83;22083;-88
2022/01/31 03:32:37;;;;;;;;;;;;;;;2.48;68.95;97697.23;1703590;83;26003;-88
2022/01/31 03:35:04;;;;;;;;;;;;;;;2.49;69.13;97690.71;1707800;83;24535;-88
2022/01/31 03:37:33;;;;;;;;;;;;;;;2.50;69.23;97686.39;1701465;83;20522;-88
2022/01/31 03:40:00;;;;;;;;;;;;;;;2.53;69.38;97685.77;1706526;83;24593;-88
2022/01/31 03:42:26;;;;;;;;;;;;;;;2.56;69.53;97683.95;1707903;83;22044;-88
2022/01/31 03:44:57;;;;;;;;;;;;;;;2.55;69.65;97691.31;1681293;83;22154;-88
2022/01/31 03:47:24;;;;;;;;;;;;;;;2.54;69.72;97677.56;1711719;83;24507;-88
2022/01/31 03:49:50;;;;;;;;;;;;;;;2.57;69.80;97670.94;1705419;83;20501;-88
2022/01/31 03:52:16;;;;;;;;;;;;;;;2.59;69.92;97669.58;1689951;83;24747;-88
2022/01/31 03:54:43;;;;;;;;;;;;;;;2.58;69.97;97655.83;1708732;82;21977;-87
2022/01/31 03:57:10;;;;;;;;;;;;;;;2.59;70.02;97649.76;1712883;82;26053;-87
2022/01/31 03:59:36;;;;;;;;;;;;;;;2.58;70.09;97655.83;1706483;82;25102;-88
2022/01/31 04:02:07;;;;;;;;;;;;;;;2.57;70.14;97658.03;1706710;82;20230;-88
2022/01/31 04:04:30;;;;;;;;;;;;;;;2.59;70.22;97652.80;1705252;82;24564;-88
2022/01/31 04:06:56;;;;;;;;;;;;;;;2.61;70.35;97658.28;1710657;82;22046;-88
2022/01/31 04:09:26;;;;;;;;;;;;;;;2.64;70.45;97660.69;1705924;82;26152;-88
2022/01/31 04:11:54;;;;;;;;;;;;;;;2.64;70.50;97661.98;1708651;82;24464;-88
2022/01/31 04:14:25;;;;;;;;;;;;;;;2.63;70.50;97654.30;1709674;82;20222;-88
2022/01/31 04:16:48;;;;;;;;;;;;;;;2.62;70.49;97635.88;1704026;82;24657;-88
2022/01/31 04:19:17;;;;;;;;;;;;;;;2.62;70.52;97627.64;1708558;82;21937;-88
2022/01/31 04:21:45;;;;;;;;;;;;;;;2.62;70.58;97621.18;1691395;82;21363;-88
2022/01/31 04:24:19;;;;;;;;;;;;;;;2.62;70.59;97625.05;1710054;82;20312;-88
2022/01/31 04:26:45;;;;;;;;;;;;;;;2.59;70.60;97621.34;1707702;82;20263;-87
2022/01/31 04:29:14;;;;;;;;;;;;;;;2.56;70.62;97608.61;1708344;82;24613;-87
2022/01/31 04:31:44;;;;;;;;;;;;;;;2.53;70.66;97603.58;1705676;82;21985;-88
2022/01/31 04:34:09;;;;;;;;;;;;;;;2.54;70.70;97603.97;1705889;82;26177;-87
2022/01/31 04:36:35;;;;;;;;;;;;;;;2.52;70.73;97597.58;1712658;82;24484;-87
2022/01/31 04:39:03;;;;;;;;;;;;;;;2.51;70.81;97598.94;1716879;82;20262;-88
2022/01/31 04:41:29;;;;;;;;;;;;;;;2.48;70.79;97589.62;1704496;82;24571;-88
2022/01/31 04:44:00;;;;;;;;;;;;;;;2.45;70.79;97594.11;1706683;82;21953;-88
2022/01/31 04:46:24;;;;;;;;;;;;;;;2.43;70.79;97590.31;1708613;82;26674;-88
2022/01/31 04:48:50;;;;;;;;;;;;;;;2.40;70.79;97585.77;1708687;82;23960;-88
2022/01/31 04:51:16;;;;;;;;;;;;;;;2.36;70.82;97591.52;1664919;85;20401;-88
2022/01/31 04:53:45;;;;;;;;;;;;;;;2.35;70.85;97585.14;1666636;85;25227;-88
2022/01/31 04:56:11;;;;;;;;;;;;;;;2.35;70.96;97585.14;1667123;85;22050;-88
2022/01/31 04:58:37;;;;;;;;;;;;;;;2.35;71.06;97580.81;1668160;85;26014;-89
2022/01/31 05:01:07;;;;;;;;;;;;;;;2.33;71.15;97580.08;1665596;85;24704;-88
2022/01/31 05:03:33;;;;;;;;;;;;;;;2.34;71.30;97556.39;1662730;85;20260;-88
2022/01/31 05:06:00;;;;;;;;;;;;;;;2.37;71.46;97554.47;1666540;85;24586;-89
2022/01/31 05:08:29;;;;;;;;;;;;;;;2.42;71.65;97553.78;1658680;85;20220;-88
2022/01/31 05:10:55;;;;;;;;;;;;;;;2.44;71.83;97550.67;1656336;85;26029;-88
2022/01/31 05:13:22;;;;;;;;;;;;;;;2.44;71.97;97540.80;1664682;85;24524;-89
2022/01/31 05:15:50;;;;;;;;;;;;;;;2.44;72.07;97534.34;1665866;85;20265;-88
2022/01/31 05:18:16;;;;;;;;;;;;;;;2.44;72.20;97531.77;1638892;86;24601;-88
2022/01/31 05:20:43;;;;;;;;;;;;;;;2.44;72.32;97538.22;1651841;86;22876;-88
2022/01/31 05:23:09;;;;;;;;;;;;;;;2.43;72.41;97536.55;1659964;85;25989;-88
2022/01/31 05:25:35;;;;;;;;;;;;;;;2.41;72.52;97535.32;1735385;82;20272;-88
2022/01/31 05:28:01;;;;;;;;;;;;;;;2.39;72.59;97533.30;1739534;82;20259;-88
2022/01/31 05:30:27;;;;;;;;;;;;;;;2.35;72.61;97527.89;1741366;82;20736;-88
2022/01/31 05:32:54;;;;;;;;;;;;;;;2.34;72.63;97524.12;1741331;81;22113;-88
2022/01/31 05:35:20;;;;;;;;;;;;;;;2.33;72.69;97514.24;1737293;81;26047;-88
2022/01/31 05:37:46;;;;;;;;;;;;;;;2.33;72.77;97512.95;1742155;80;24465;-89
2022/01/31 05:40:12;;;;;;;;;;;;;;;2.34;72.89;97512.50;1737588;82;20344;-89
2022/01/31 05:42:39;;;;;;;;;;;;;;;2.32;73.00;97507.41;1735672;82;24767;-88
2022/01/31 05:45:08;;;;;;;;;;;;;;;2.29;73.07;97502.38;1734528;82;22212;-88
2022/01/31 05:47:35;;;;;;;;;;;;;;;2.28;73.15;97498.61;1736718;82;26022;-88
2022/01/31 05:50:07;;;;;;;;;;;;;;;2.27;73.25;97495.65;1732627;82;24284;-88
2022/01/31 05:52:33;;;;;;;;;;;;;;;2.28;73.37;97494.29;1731977;82;20215;-88
2022/01/31 05:54:59;;;;;;;;;;;;;;;2.28;73.48;97490.88;1732793;82;24730;-88
2022/01/31 05:57:25;;;;;;;;;;;;;;;2.25;73.58;97491.84;1734115;81;21927;-88
2022/01/31 05:59:51;;;;;;;;;;;;;;;2.26;73.69;97491.39;1731219;82;25974;-87
2022/01/31 06:02:19;;;;;;;;;;;;;;;2.22;73.78;97502.34;1731246;82;25160;-87
2022/01/31 06:04:45;;;;;;;;;;;;;;;2.22;73.88;97495.05;1739897;82;20151;-87
2022/01/31 06:07:12;;;;;;;;;;;;;;;2.20;73.97;97489.12;1731584;82;24534;-84
2022/01/31 06:09:38;;;;;;;;;;;;;;;2.19;74.10;97481.00;1731999;81;21985;-87
2022/01/31 06:12:05;;;;;;;;;;;;;;;2.18;74.23;97480.20;1708250;82;26008;-87
2022/01/31 06:14:37;;;;;;;;;;;;;;;2.17;74.33;97476.39;1729958;81;24537;-87
2022/01/31 06:17:05;;;;;;;;;;;;;;;2.17;74.44;97475.94;1728728;80;20205;-87
2022/01/31 06:19:31;;;;;;;;;;;;;;;2.18;74.56;97467.74;1732590;81;25289;-88
2022/01/31 06:22:00;;;;;;;;;;;;;;;2.16;74.66;97463.11;1731418;81;21969;-88
2022/01/31 06:24:26;;;;;;;;;;;;;;;2.15;74.76;97462.72;1734046;81;25956;-84
2022/01/31 06:26:53;;;;;;;;;;;;;;;2.13;74.87;97453.77;1731379;81;24438;-86
2022/01/31 06:29:22;;;;;;;;;;;;;;;2.12;74.94;97453.41;1739608;81;20314;-84
2022/01/31 06:31:48;;;;;;;;;;;;;;;2.09;75.06;97449.23;1734047;81;24539;-88
2022/01/31 06:34:14;;;;;;;;;;;;;;;2.07;75.14;97438.63;1735535;81;22650;-87
2022/01/31 06:36:40;;;;;;;;;;;;;;;2.02;75.20;97433.67;1739740;82;25980;-87
2022/01/31 06:39:07;;;;;;;;;;;;;;;2.00;75.28;97439.39;1731352;82;24410;-84
2022/01/31 06:41:35;;;;;;;;;;;;;;;1.97;75.40;97426.63;1732276;82;20262;-83
2022/01/31 06:44:01;;;;;;;;;;;;;;;1.97;75.50;97439.53;1732599;82;24687;-87
2022/01/31 06:46:27;;;;;;;;;;;;;;;1.98;75.64;97442.49;1734860;82;22216;-87
2022/01/31 06:48:54;;;;;;;;;;;;;;;1.98;75.80;97432.17;1740039;81;26018;-86
2022/01/31 06:51:20;;;;;;;;;;;;;;;2.00;75.95;97435.97;1728933;82;25241;-87
2022/01/31 06:53:55;;;;;;;;;;;;;;;2.02;76.12;97438.84;1721091;82;20244;-88
2022/01/31 06:56:28;;;;;;;;;;;;;;;2.03;76.27;97432.77;1730930;82;24612;-83
2022/01/31 06:58:49;;;;;;;;;;;;;;;2.05;76.46;97428.83;1730099;82;22191;-83
2022/01/31 07:01:24;;;;;;;;;;;;;;;2.05;76.62;97423.66;1719173;83;26032;-83
2022/01/31 07:03:46;;;;;;;;;;;;;;;2.05;76.80;97421.92;1723206;82;24647;-84
2022/01/31 07:06:13;;;;;;;;;;;;;;;2.09;76.94;97426.00;1701619;83;20293;-83
2022/01/31 07:08:41;;;;;;;;;;;;;;;2.10;77.10;97427.67;1724355;82;24642;-83
2022/01/31 07:11:08;;;;;;;;;;;;;;;2.12;77.25;97422.89;1707461;82;22128;-83
2022/01/31 07:16:07;;;;;;;;;;;;;;;2.14;77.52;97406.86;1726635;82;24796;-83
2022/01/31 07:18:34;;;;;;;;;;;;;;;2.14;77.67;97406.86;1728685;82;20149;-83
2022/01/31 07:21:01;;;;;;;;;;;;;;;2.13;77.79;97399.56;1727183;82;24657;-87
2022/01/31 07:23:29;;;;;;;;;;;;;;;2.14;77.91;97391.38;1727563;81;22049;-86
2022/01/31 07:25:55;;;;;;;;;;;;;;;2.15;78.05;97378.85;1732281;82;26183;-86
2022/01/31 07:28:21;;;;;;;;;;;;;;;2.15;78.19;97371.11;1695276;81;24503;-86
2022/01/31 07:30:49;;;;;;;;;;;;;;;2.14;78.28;97370.73;1705065;82;20224;-88
2022/01/31 07:33:15;;;;;;;;;;;;;;;2.17;78.44;97365.42;1727549;82;24518;-87
2022/01/31 07:35:44;;;;;;;;;;;;;;;2.17;78.58;97371.87;1727182;82;22033;-88
2022/01/31 07:38:10;;;;;;;;;;;;;;;2.16;78.66;97365.88;1728813;82;26096;-87
2022/01/31 07:40:36;;;;;;;;;;;;;;;2.14;78.77;97366.86;1725398;81;24650;-87
2022/01/31 07:43:08;;;;;;;;;;;;;;;2.15;78.86;97360.33;1724763;82;20365;-88
2022/01/31 07:45:31;;;;;;;;;;;;;;;2.16;78.99;97358.13;1707274;82;25319;-86
2022/01/31 07:47:58;;;;;;;;;;;;;;;2.15;79.08;97369.36;1718206;82;21952;-86
2022/01/31 07:50:24;;;;;;;;;;;;;;;2.16;79.19;97367.62;1715806;82;26064;-86
2022/01/31 07:52:52;;;;;;;;;;;;;;;2.18;79.32;97356.77;1708706;83;24041;-86
2022/01/31 07:55:18;;;;;;;;;;;;;;;2.21;79.45;97354.02;1704292;83;20267;-86
2022/01/31 07:57:46;;;;;;;;;;;;;;;2.23;79.57;97349.61;1704661;83;24535;-86
2022/01/31 08:00:12;;;;;;;;;;;;;;;2.23;79.69;97341.87;1703139;83;22803;-86
2022/01/31 08:02:42;;;;;;;;;;;;;;;2.24;79.79;97340.92;1703817;83;25959;-86
2022/01/31 08:05:09;;;;;;;;;;;;;;;2.24;79.86;97340.92;1702450;83;24549;-86
2022/01/31 08:07:35;;;;;;;;;;;;;;;2.24;79.96;97337.89;1706758;83;20190;-86
2022/01/31 08:10:03;;;;;;;;;;;;;;;2.26;80.04;97315.88;1705258;82;24758;-86
2022/01/31 08:12:33;;;;;;;;;;;;;;;2.28;80.17;97310.19;1702719;82;21974;-86
2022/01/31 08:15:06;;;;;;;;;;;;;;;2.31;80.27;97303.09;1696340;83;26941;-85
2022/01/31 08:17:29;;;;;;;;;;;;;;;2.34;80.38;97298.23;1689776;83;25334;-86
2022/01/31 08:19:55;;;;;;;;;;;;;;;2.34;80.47;97296.94;1696260;82;20276;-86
2022/01/31 08:22:21;;;;;;;;;;;;;;;2.37;80.51;97292.89;1701879;83;24496;-88
2022/01/31 08:24:52;;;;;;;;;;;;;;;2.39;80.61;97289.77;1707327;83;20373;-88
2022/01/31 08:27:15;;;;;;;;;;;;;;;2.39;80.63;97290.61;1671958;84;26082;-88
2022/01/31 08:29:41;;;;;;;;;;;;;;;2.37;80.64;97276.11;1640833;86;24511;-87
2022/01/31 08:32:16;;;;;;;;;;;;;;;2.37;80.66;97279.98;1701109;83;20487;-86
2022/01/31 08:37:27;;;;;;;;;;;;;;;2.35;80.62;97268.44;1701616;83;22012;-88
2022/01/31 08:39:56;;;;;;;;;;;;;;;2.38;80.64;97261.83;1706930;83;26011;-88
2022/01/31 08:42:24;;;;;;;;;;;;;;;2.40;80.70;97257.40;1700362;83;24508;-88
2022/01/31 08:44:51;;;;;;;;;;;;;;;2.44;80.75;97260.20;1672379;84;20236;-88
2022/01/31 08:47:18;;;;;;;;;;;;;;;2.47;80.79;97257.89;1703894;83;24603;-86
2022/01/31 08:49:51;;;;;;;;;;;;;;;2.50;80.82;97260.32;1703689;83;22098;-86
2022/01/31 08:52:17;;;;;;;;;;;;;;;2.48;80.79;97256.52;1669239;84;26070;-87
2022/01/31 08:54:43;;;;;;;;;;;;;;;2.45;80.72;97255.88;1702179;83;24535;-86
2022/01/31 08:57:09;;;;;;;;;;;;;;;2.47;80.67;97245.81;1683602;84;20232;-86
2022/01/31 08:59:42;;;;;;;;;;;;;;;2.49;80.70;97236.24;1700708;84;24618;-84
2022/01/31 09:02:06;;;;;;;;;;;;;;;2.54;80.75;97230.81;1705130;84;22027;-84
2022/01/31 09:04:41;;;;;;;;;;;;;;;2.59;80.79;97227.96;1705532;84;26702;-84
2022/01/31 09:07:02;;;;;;;;;;;;;;;2.63;80.79;97228.98;1698862;84;24660;-84
2022/01/31 09:09:30;;;;;;;;;;;;;;;2.71;80.88;97222.94;1705212;84;20539;-84
2022/01/31 09:11:57;;;;;;;;;;;;;;;2.73;80.90;97216.37;1702907;84;24650;-84
2022/01/31 09:14:26;;;;;;;;;;;;;;;2.75;80.84;97208.08;1703819;83;21998;-84
2022/01/31 09:16:52;;;;;;;;;;;;;;;2.81;80.83;97200.81;1706087;84;25695;-84
2022/01/31 09:19:19;;;;;;;;;;;;;;;2.85;80.81;97189.37;1705091;84;24473;-84
2022/01/31 09:21:45;;;;;;;;;;;;;;;2.89;80.81;97189.55;1703486;84;20300;-84
2022/01/31 09:24:11;;;;;;;;;;;;;;;2.95;80.85;97184.02;1704924;83;24531;-84
2022/01/31 09:26:38;;;;;;;;;;;;;;;2.98;80.80;97183.02;1701874;84;21984;-88
2022/01/31 09:29:04;;;;;;;;;;;;;;;3.00;80.72;97173.41;1697505;84;26731;-88
2022/01/31 09:31:43;;;;;;;;;;;;;;;3.08;80.73;97174.25;1699888;84;24493;-88
2022/01/31 09:34:12;;;;;;;;;;;;;;;3.11;80.69;97173.59;1669894;85;20157;-86
2022/01/31 09:36:38;;;;;;;;;;;;;;;3.09;80.50;97168.16;1672129;83;26073;-86
2022/01/31 09:39:07;;;;;;;;;;;;;;;3.06;80.28;97160.58;1674359;85;22053;-87
2022/01/31 09:41:35;;;;;;;;;;;;;;;2.99;79.99;97167.89;1673256;85;26900;-86
2022/01/31 09:44:12;;;;;;;;;;;;;;;3.02;79.78;97169.45;1704629;84;24594;-88
2022/01/31 09:49:11;;;;;;;;;;;;;;;3.00;79.38;97157.90;1737645;81;24694;-88
2022/01/31 09:51:37;;;;;;;;;;;;;;;3.05;79.27;97160.23;1727633;81;20738;-89
2022/01/31 09:54:08;;;;;;;;;;;;;;;3.06;79.20;97162.70;1731915;82;25964;-88
2022/01/31 09:56:33;;;;;;;;;;;;;;;3.08;79.11;97156.99;1722598;82;24436;-89
2022/01/31 09:59:03;;;;;;;;;;;;;;;3.12;79.03;97155.05;1730070;82;20400;-88
2022/01/31 10:01:33;;;;;;;;;;;;;;;3.14;78.94;97148.04;1738794;81;24660;-84
2022/01/31 10:04:01;;;;;;;;;;;;;;;3.18;78.89;97139.17;1737089;82;21984;-88
2022/01/31 10:06:28;;;;;;;;;;;;;;;3.19;78.79;97143.42;1731319;81;26075;-88
2022/01/31 10:09:00;;;;;;;;;;;;;;;3.21;78.72;97141.58;1734778;82;24583;-89
2022/01/31 10:11:30;;;;;;;;;;;;;;;3.21;78.62;97136.41;1669896;84;20349;-88
2022/01/31 10:16:58;;;;;;;;;;;;;;;3.27;78.46;97126.99;1689714;84;22135;-83
2022/01/31 10:19:25;;;;;;;;;;;;;;;3.25;78.35;97123.20;1701218;83;25995;-84
2022/01/31 10:21:59;;;;;;;;;;;;;;;3.27;78.24;97118.75;1702633;83;24532;-85
2022/01/31 10:24:26;;;;;;;;;;;;;;;3.29;78.20;97114.32;1704009;84;20226;-83
2022/01/31 10:26:53;;;;;;;;;;;;;;;3.29;78.09;97108.32;1704909;83;24696;-83
2022/01/31 10:29:20;;;;;;;;;;;;;;;3.30;78.01;97107.40;1702172;83;22057;-83
2022/01/31 10:31:54;;;;;;;;;;;;;;;3.28;77.89;97096.31;1703414;84;26054;-83
2022/01/31 10:34:20;;;;;;;;;;;;;;;3.27;77.76;97095.97;1701794;84;24607;-83
2022/01/31 10:36:46;;;;;;;;;;;;;;;3.31;77.72;97085.34;1698979;84;20236;-83
2022/01/31 10:43:24;;;;;;;;;;;;;;;3.36;77.70;97079.88;1703325;83;24557;-83
2022/01/31 10:53:05;;;;;;;;;;;;;;;3.31;77.16;97074.16;1695963;82;24654;-87
2022/01/31 10:55:24;;;;;;;;;;;;;;;3.26;76.96;97081.37;1701208;83;22245;-88
2022/01/31 10:58:10;;;;;;;;;;;;;;;3.21;76.79;97071.33;1704244;83;25961;-88
2022/01/31 11:00:39;;;;;;;;;;;;;;;3.13;76.54;97076.13;1696399;83;24545;-87
2022/01/31 11:03:23;;;;;;;;;;;;;;;3.07;76.24;97074.37;1697507;84;20192;-88
2022/01/31 11:05:49;;;;;;;;;;;;;;;3.07;76.09;97071.80;1695722;83;24568;-87
2022/01/31 11:08:16;;;;;;;;;;;;;;;3.07;75.94;97073.92;1699918;83;22032;-88
2022/01/31 11:10:42;;;;;;;;;;;;;;;3.04;75.79;97071.54;1704594;83;26025;-88
2022/01/31 11:13:09;;;;;;;;;;;;;;;2.98;75.55;97071.91;1701904;83;24622;-87
2022/01/31 11:15:37;;;;;;;;;;;;;;;2.94;75.37;97061.41;1677765;83;20219;-87
2022/01/31 11:18:06;;;;;;;;;;;;;;;2.89;75.15;97062.95;1699297;83;25388;-87
2022/01/31 11:20:43;;;;;;;;;;;;;;;2.86;74.96;97061.86;1702590;83;21469;-88
2022/01/31 11:23:09;;;;;;;;;;;;;;;2.88;74.86;97050.14;1699609;83;26086;-87
2022/01/31 11:25:37;;;;;;;;;;;;;;;2.85;74.75;97048.56;1698491;83;24456;-87
2022/01/31 11:28:04;;;;;;;;;;;;;;;2.86;74.64;97045.52;1696377;83;20338;-87
2022/01/31 11:30:30;;;;;;;;;;;;;;;2.87;74.62;97042.02;1697486;83;24450;-87
2022/01/31 11:32:56;;;;;;;;;;;;;;;2.86;74.54;97042.48;1699385;83;21996;-87
2022/01/31 11:35:23;;;;;;;;;;;;;;;2.87;74.49;97043.31;1703046;83;26052;-88
2022/01/31 11:37:50;;;;;;;;;;;;;;;2.85;74.41;97038.23;1693715;83;24408;-88
2022/01/31 11:40:22;;;;;;;;;;;;;;;2.81;74.33;97034.64;1697611;83;20383;-88
2022/01/31 11:42:49;;;;;;;;;;;;;;;2.81;74.26;97030.77;1697194;82;24526;-87
2022/01/31 11:45:17;;;;;;;;;;;;;;;2.82;74.24;97022.94;1693980;83;22041;-87
2022/01/31 11:47:49;;;;;;;;;;;;;;;2.87;74.26;97021.36;1698754;83;26671;-88
2022/01/31 11:50:15;;;;;;;;;;;;;;;2.92;74.37;97012.86;1697519;83;24455;-88
2022/01/31 11:52:49;;;;;;;;;;;;;;;2.97;74.47;97003.52;1685086;82;20352;-87
2022/01/31 11:55:21;;;;;;;;;;;;;;;2.97;74.52;97006.11;1694882;82;24616;-87
2022/01/31 11:57:50;;;;;;;;;;;;;;;2.94;74.51;97009.27;1695418;82;22012;-87
2022/01/31 12:00:17;;;;;;;;;;;;;;;2.94;74.50;97017.48;1714185;82;26031;-86
2022/01/31 12:02:47;;;;;;;;;;;;;;;2.95;74.54;97006.19;1684678;83;24510;-86
2022/01/31 12:05:16;;;;;;;;;;;;;;;3.00;74.66;96998.18;1710013;82;20479;-86
2022/01/31 12:07:44;;;;;;;;;;;;;;;3.02;74.74;96987.27;1712062;82;24760;-86
2022/01/31 12:10:14;;;;;;;;;;;;;;;3.05;74.76;96975.46;1712207;82;21132;-83
2022/01/31 12:13:12;;;;;;;;;;;;;;;3.10;74.88;96973.41;1721808;82;26054;-84
2022/01/31 12:23:58;;;;;;;;;;;;;;;3.19;75.11;96943.92;1710654;82;22050;-84
2022/01/31 12:26:35;;;;;;;;;;;;;;;3.26;75.26;96931.44;1713553;82;26751;-84
2022/01/31 12:29:09;;;;;;;;;;;;;;;3.33;75.42;96920.59;1713410;82;24512;-84
2022/01/31 12:31:37;;;;;;;;;;;;;;;3.42;75.57;96916.59;1709232;82;20195;-87
2022/01/31 12:34:05;;;;;;;;;;;;;;;3.51;75.71;96904.80;1702946;82;24585;-88
2022/01/31 12:36:36;;;;;;;;;;;;;;;3.53;75.76;96894.73;1713354;82;22705;-87
2022/01/31 12:39:04;;;;;;;;;;;;;;;3.55;75.76;96894.61;1717583;82;25949;-88
2022/01/31 12:41:31;;;;;;;;;;;;;;;3.66;75.85;96894.72;1706370;82;25265;-88
2022/01/31 12:44:15;;;;;;;;;;;;;;;3.70;75.89;96893.14;1696480;82;20536;-87
2022/01/31 12:46:49;;;;;;;;;;;;;;;3.77;75.94;96890.95;1710510;82;24595;-84
2022/01/31 12:49:21;;;;;;;;;;;;;;;3.84;76.00;96883.61;1700073;82;22134;-84
2022/01/31 12:51:58;;;;;;;;;;;;;;;3.89;76.01;96893.18;1700738;82;25904;-87
2022/01/31 12:54:24;;;;;;;;;;;;;;;3.95;76.07;96883.25;1734499;81;24425;-87
2022/01/31 12:56:51;;;;;;;;;;;;;;;4.03;76.12;96886.62;1738735;81;20168;-84
2022/01/31 12:59:18;;;;;;;;;;;;;;;4.07;76.15;96882.88;1733058;81;24693;-86
2022/01/31 13:01:50;;;;;;;;;;;;;;;4.13;76.20;96878.58;1737778;81;22181;-86
2022/01/31 13:04:21;;;;;;;;;;;;;;;4.10;76.13;96878.77;1741833;81;25570;-83
2022/01/31 13:07:04;;;;;;;;;;;;;;;4.03;75.85;96878.85;1740402;81;25331;-86
2022/01/31 13:09:32;;;;;;;;;;;;;;;4.01;75.67;96885.88;1737568;81;20214;-86
2022/01/31 13:12:01;;;;;;;;;;;;;;;3.99;75.49;96887.73;1683114;84;25409;-83
2022/01/31 13:14:29;;;;;;;;;;;;;;;3.91;75.21;96890.03;1737030;80;22749;-88
2022/01/31 13:17:10;;;;;;;;;;;;;;;3.83;74.92;96885.36;1739262;81;26144;-87
2022/01/31 13:19:52;;;;;;;;;;;;;;;3.76;74.65;96884.95;1728958;81;24559;-88
2022/01/31 13:22:37;;;;;;;;;;;;;;;3.71;74.49;96880.55;1729707;81;20338;-84
2022/01/31 13:25:00;;;;;;;;;;;;;;;3.67;74.29;96881.69;1727337;81;24618;-88
2022/01/31 13:27:34;;;;;;;;;;;;;;;3.63;74.16;96881.55;1735149;81;22005;-88
2022/01/31 13:30:04;;;;;;;;;;;;;;;3.61;74.02;96879.97;1720775;81;26660;-88
2022/01/31 13:32:39;;;;;;;;;;;;;;;3.62;73.98;96877.76;1732557;82;24487;-84